createdAt,value
2019-03-18T00:01:55.586Z,3.40
2019-03-18T00:04:24.836Z,3.40
2019-03-18T00:06:53.981Z,3.40
2019-03-18T00:09:23.180Z,3.40
2019-03-18T00:11:52.422Z,3.40
2019-03-18T00:14:21.557Z,3.30
2019-03-18T00:16:50.698Z,3.40
2019-03-18T00:19:19.948Z,3.40
2019-03-18T00:21:49.252Z,3.40
2019-03-18T00:24:18.548Z,3.40
2019-03-18T00:26:47.714Z,3.40
2019-03-18T00:29:16.862Z,3.40
2019-03-18T00:31:47.870Z,3.50
2019-03-18T00:34:17.121Z,3.50
2019-03-18T00:36:46.326Z,3.50
2019-03-18T00:39:15.466Z,3.50
2019-03-18T00:41:44.792Z,3.50
2019-03-18T00:44:14.010Z,3.50
2019-03-18T00:46:43.246Z,3.50
2019-03-18T00:49:12.494Z,3.60
2019-03-18T00:51:41.647Z,3.50
2019-03-18T00:54:10.862Z,3.50
2019-03-18T00:56:40.142Z,3.50
2019-03-18T00:59:09.332Z,3.50
2019-03-18T01:01:38.582Z,3.50
2019-03-18T01:04:07.740Z,3.50
2019-03-18T01:06:36.900Z,3.50
2019-03-18T01:09:07.422Z,3.50
2019-03-18T01:11:36.592Z,3.50
2019-03-18T01:14:05.808Z,3.50
2019-03-18T01:16:34.944Z,3.50
2019-03-18T01:19:04.139Z,3.50
2019-03-18T01:21:33.344Z,3.50
2019-03-18T01:24:02.504Z,3.50
2019-03-18T01:26:31.832Z,3.50
2019-03-18T01:29:01.042Z,3.50
2019-03-18T01:31:30.186Z,3.50
2019-03-18T01:33:59.368Z,3.40
2019-03-18T01:36:28.517Z,3.50
2019-03-18T01:38:57.655Z,3.50
2019-03-18T01:41:26.824Z,3.40
2019-03-18T01:43:55.982Z,3.40
2019-03-18T01:46:25.192Z,3.40
2019-03-18T01:48:54.444Z,3.40
2019-03-18T01:51:23.734Z,3.30
2019-03-18T01:53:52.876Z,3.30
2019-03-18T01:56:22.102Z,3.30
2019-03-18T01:58:51.242Z,3.30
2019-03-18T02:01:20.385Z,3.30
2019-03-18T02:03:49.641Z,3.30
2019-03-18T02:06:18.856Z,3.30
2019-03-18T02:08:48.072Z,3.30
2019-03-18T02:11:17.330Z,3.30
2019-03-18T02:13:46.562Z,3.30
2019-03-18T02:16:15.780Z,3.30
2019-03-18T02:18:45.110Z,3.30
2019-03-18T02:21:14.315Z,3.30
2019-03-18T02:23:43.452Z,3.20
2019-03-18T02:26:12.624Z,3.30
2019-03-18T02:28:41.836Z,3.20
2019-03-18T02:31:10.963Z,3.20
2019-03-18T02:33:40.162Z,3.20
2019-03-18T02:36:09.399Z,3.20
2019-03-18T02:38:38.541Z,3.20
2019-03-18T02:41:07.792Z,3.20
2019-03-18T02:43:37.006Z,3.20
2019-03-18T02:46:10.376Z,3.20
2019-03-18T02:48:37.111Z,3.20
2019-03-18T02:51:06.329Z,3.20
2019-03-18T02:53:35.539Z,3.20
2019-03-18T02:56:04.785Z,3.20
2019-03-18T02:58:34.037Z,3.30
2019-03-18T03:01:03.254Z,3.30
2019-03-18T03:03:32.495Z,3.30
2019-03-18T03:06:01.648Z,3.30
2019-03-18T03:08:30.859Z,3.30
2019-03-18T03:11:00.167Z,3.40
2019-03-18T03:13:29.372Z,3.30
2019-03-18T03:15:58.583Z,3.40
2019-03-18T03:18:27.769Z,3.30
2019-03-18T03:20:57.001Z,3.30
2019-03-18T03:23:26.199Z,3.30
2019-03-18T03:25:55.367Z,3.40
2019-03-18T03:28:24.567Z,3.40
2019-03-18T03:30:53.775Z,3.40
2019-03-18T03:33:23.037Z,3.40
2019-03-18T03:35:52.312Z,3.40
2019-03-18T03:38:21.504Z,3.50
2019-03-18T03:40:51.104Z,3.50
2019-03-18T03:43:20.306Z,3.50
2019-03-18T03:45:49.555Z,3.50
2019-03-18T03:48:18.796Z,3.50
2019-03-18T03:50:47.966Z,3.60
2019-03-18T03:53:17.172Z,3.60
2019-03-18T03:55:46.466Z,3.60
2019-03-18T03:58:16.487Z,3.50
2019-03-18T04:00:45.709Z,3.60
2019-03-18T04:03:15.181Z,3.50
2019-03-18T04:05:44.804Z,3.50
2019-03-18T04:08:14.024Z,3.50
2019-03-18T04:10:43.279Z,3.50
2019-03-18T04:13:12.489Z,3.60
2019-03-18T04:15:41.802Z,3.50
2019-03-18T04:18:11.051Z,3.50
2019-03-18T04:20:40.266Z,3.60
2019-03-18T04:23:09.470Z,3.60
2019-03-18T04:25:38.657Z,3.60
2019-03-18T04:28:07.871Z,3.60
2019-03-18T04:30:37.087Z,3.60
2019-03-18T04:33:06.374Z,3.50
2019-03-18T04:35:35.539Z,3.50
2019-03-18T04:38:04.811Z,3.60
2019-03-18T04:40:33.994Z,3.60
2019-03-18T04:43:03.130Z,3.60
2019-03-18T04:45:32.259Z,3.60
2019-03-18T04:48:01.450Z,3.70
2019-03-18T04:50:30.668Z,3.70
2019-03-18T04:52:59.882Z,3.70
2019-03-18T04:55:29.127Z,3.70
2019-03-18T04:57:58.265Z,3.70
2019-03-18T05:00:27.419Z,3.70
2019-03-18T05:02:56.728Z,3.80
2019-03-18T05:05:25.938Z,3.80
2019-03-18T05:07:55.094Z,3.80
2019-03-18T05:10:24.286Z,3.90
2019-03-18T05:12:53.416Z,3.90
2019-03-18T05:15:22.630Z,3.90
2019-03-18T05:17:51.888Z,3.90
2019-03-18T05:20:21.028Z,3.80
2019-03-18T05:22:50.248Z,3.80
2019-03-18T05:25:19.430Z,3.80
2019-03-18T05:27:48.575Z,3.80
2019-03-18T05:30:17.808Z,3.80
2019-03-18T05:32:47.033Z,3.80
2019-03-18T05:35:16.174Z,3.80
2019-03-18T05:37:45.542Z,3.80
2019-03-18T05:40:14.714Z,3.80
2019-03-18T05:42:43.861Z,3.80
2019-03-18T05:45:13.168Z,3.90
2019-03-18T05:47:42.432Z,3.90
2019-03-18T05:50:11.772Z,3.90
2019-03-18T05:52:40.917Z,3.90
2019-03-18T05:55:10.702Z,3.90
2019-03-18T05:57:39.899Z,4.00
2019-03-18T06:00:09.356Z,4.00
2019-03-18T06:02:38.538Z,4.00
2019-03-18T06:05:07.700Z,4.00
2019-03-18T06:07:36.835Z,4.00
2019-03-18T06:10:07.117Z,4.10
2019-03-18T06:12:36.406Z,4.10
2019-03-18T06:15:06.215Z,4.10
2019-03-18T06:17:35.385Z,4.20
2019-03-18T06:20:05.089Z,4.20
2019-03-18T06:22:34.236Z,4.20
2019-03-18T06:25:03.435Z,4.20
2019-03-18T06:27:32.652Z,4.10
2019-03-18T06:30:01.883Z,4.10
2019-03-18T06:32:31.092Z,4.10
2019-03-18T06:35:00.353Z,4.10
2019-03-18T06:37:29.548Z,4.10
2019-03-18T06:39:58.748Z,4.10
2019-03-18T06:42:27.908Z,4.10
2019-03-18T06:44:57.145Z,4.10
2019-03-18T06:47:26.457Z,4.00
2019-03-18T06:49:55.653Z,4.00
2019-03-18T06:52:24.871Z,4.10
2019-03-18T06:54:54.243Z,4.10
2019-03-18T06:57:23.394Z,4.10
2019-03-18T06:59:52.617Z,4.20
2019-03-18T07:02:21.857Z,4.20
2019-03-18T07:04:51.076Z,4.30
2019-03-18T07:07:20.222Z,4.40
2019-03-18T07:09:49.467Z,4.50
2019-03-18T07:12:18.599Z,4.60
2019-03-18T07:14:47.840Z,4.90
2019-03-18T07:17:17.201Z,5.20
2019-03-18T07:19:46.333Z,5.30
2019-03-18T07:22:15.464Z,5.30
2019-03-18T07:24:44.634Z,5.30
2019-03-18T07:27:13.773Z,5.30
2019-03-18T07:29:42.918Z,5.30
2019-03-18T07:32:12.066Z,5.30
2019-03-18T07:34:41.222Z,5.30
2019-03-18T07:37:10.533Z,5.10
2019-03-18T07:39:40.203Z,5.10
2019-03-18T07:42:09.433Z,5.10
2019-03-18T07:44:38.573Z,5.10
2019-03-18T07:47:07.843Z,5.20
2019-03-18T07:49:37.046Z,5.30
2019-03-18T07:52:06.185Z,5.40
2019-03-18T07:54:35.394Z,5.50
2019-03-18T07:57:04.613Z,5.60
2019-03-18T07:59:33.828Z,5.60
2019-03-18T08:02:03.020Z,5.60
2019-03-18T08:04:37.211Z,5.80
2019-03-18T08:07:03.007Z,6.00
2019-03-18T08:09:32.216Z,6.20
2019-03-18T08:12:01.443Z,6.30
2019-03-18T08:14:30.582Z,6.30
2019-03-18T08:16:59.829Z,6.20
2019-03-18T08:19:28.982Z,6.10
2019-03-18T08:21:58.218Z,6.10
2019-03-18T08:24:27.459Z,6.20
2019-03-18T08:26:56.683Z,6.30
2019-03-18T08:29:25.917Z,6.40
2019-03-18T08:31:55.161Z,6.50
2019-03-18T08:34:24.379Z,6.50
2019-03-18T08:36:53.517Z,6.60
2019-03-18T08:39:22.823Z,6.70
2019-03-18T08:41:51.967Z,6.70
2019-03-18T08:44:21.111Z,6.80
2019-03-18T08:46:50.297Z,6.80
2019-03-18T08:49:19.443Z,6.90
2019-03-18T08:51:48.595Z,7.00
2019-03-18T08:54:17.777Z,7.00
2019-03-18T08:56:47.003Z,7.10
2019-03-18T08:59:16.141Z,7.10
2019-03-18T09:01:45.398Z,7.20
2019-03-18T09:04:14.615Z,7.30
2019-03-18T09:06:43.846Z,7.30
2019-03-18T09:09:13.091Z,7.50
2019-03-18T09:11:42.355Z,7.50
2019-03-18T09:14:11.507Z,7.60
2019-03-18T09:16:40.825Z,7.70
2019-03-18T09:19:10.039Z,7.70
2019-03-18T09:21:39.259Z,7.80
2019-03-18T09:24:08.434Z,8.00
2019-03-18T09:26:37.655Z,8.20
2019-03-18T09:29:06.791Z,8.40
2019-03-18T09:31:36.079Z,8.50
2019-03-18T09:34:05.488Z,8.40
2019-03-18T09:36:34.639Z,8.50
2019-03-18T09:39:05.737Z,8.50
2019-03-18T09:41:34.938Z,8.60
2019-03-18T09:44:04.096Z,8.60
2019-03-18T09:46:33.338Z,8.70
2019-03-18T09:49:02.495Z,8.90
2019-03-18T09:51:31.636Z,9.10
2019-03-18T09:54:00.980Z,9.00
2019-03-18T09:56:30.205Z,9.10
2019-03-18T09:58:59.424Z,9.10
2019-03-18T10:01:28.701Z,9.20
2019-03-18T10:03:57.996Z,9.30
2019-03-18T10:06:27.235Z,9.20
2019-03-18T10:08:56.515Z,9.20
2019-03-18T10:11:25.769Z,9.20
2019-03-18T10:13:54.907Z,9.50
2019-03-18T10:16:24.095Z,9.70
2019-03-18T10:18:53.232Z,9.60
2019-03-18T10:21:22.466Z,9.30
2019-03-18T10:23:51.639Z,9.20
2019-03-18T10:26:20.778Z,9.00
2019-03-18T10:28:49.929Z,9.00
2019-03-18T10:31:19.250Z,9.20
2019-03-18T10:33:48.461Z,9.60
2019-03-18T10:36:17.677Z,9.80
2019-03-18T10:38:46.865Z,9.80
2019-03-18T10:41:16.081Z,9.80
2019-03-18T10:43:45.308Z,9.60
2019-03-18T10:46:14.577Z,9.40
2019-03-18T10:48:43.787Z,9.60
2019-03-18T10:51:13.003Z,9.90
2019-03-18T10:53:44.505Z,10.00
2019-03-18T10:56:13.123Z,9.90
2019-03-18T10:58:42.417Z,9.80
2019-03-18T11:01:11.593Z,9.70
2019-03-18T11:03:40.837Z,9.60
2019-03-18T11:06:10.063Z,9.60
2019-03-18T11:08:39.259Z,9.50
2019-03-18T11:11:08.396Z,9.50
2019-03-18T11:13:37.566Z,9.50
2019-03-18T11:16:06.975Z,9.50
2019-03-18T11:18:36.111Z,9.30
2019-03-18T11:21:05.256Z,9.20
2019-03-18T11:23:34.427Z,8.90
2019-03-18T11:26:03.574Z,8.70
2019-03-18T11:28:32.799Z,8.50
2019-03-18T11:31:01.977Z,8.40
2019-03-18T11:33:31.187Z,8.40
2019-03-18T11:36:00.454Z,8.40
2019-03-18T11:38:31.867Z,8.60
2019-03-18T11:41:00.671Z,8.80
2019-03-18T11:43:29.893Z,9.20
2019-03-18T11:45:59.130Z,9.50
2019-03-18T11:48:28.662Z,9.90
2019-03-18T11:50:57.807Z,10.00
2019-03-18T11:53:26.984Z,9.90
2019-03-18T11:55:56.201Z,9.70
2019-03-18T11:58:25.519Z,9.40
2019-03-18T12:00:54.743Z,9.10
2019-03-18T12:03:24.176Z,8.80
2019-03-18T12:05:53.325Z,8.80
2019-03-18T12:08:22.494Z,8.80
2019-03-18T12:10:51.644Z,8.90
2019-03-18T12:13:20.877Z,9.10
2019-03-18T12:15:50.055Z,9.40
2019-03-18T12:18:19.199Z,9.70
2019-03-18T12:20:48.362Z,10.10
2019-03-18T12:23:17.665Z,10.20
2019-03-18T12:25:46.891Z,10.10
2019-03-18T12:28:16.111Z,9.80
2019-03-18T12:30:45.349Z,9.40
2019-03-18T12:33:14.569Z,9.30
2019-03-18T12:35:43.787Z,9.20
2019-03-18T12:38:13.176Z,9.10
2019-03-18T12:40:42.388Z,9.00
2019-03-18T12:43:11.617Z,9.00
2019-03-18T12:45:40.896Z,9.00
2019-03-18T12:48:10.111Z,9.00
2019-03-18T12:50:54.987Z,9.10
2019-03-18T12:53:10.353Z,9.20
2019-03-18T12:55:39.571Z,9.30
2019-03-18T12:58:08.807Z,9.50
2019-03-18T13:00:38.162Z,9.50
2019-03-18T13:03:07.435Z,9.60
2019-03-18T13:05:36.650Z,9.70
2019-03-18T13:08:05.853Z,9.80
2019-03-18T13:10:35.112Z,10.10
2019-03-18T13:13:04.515Z,10.20
2019-03-18T13:15:33.768Z,10.40
2019-03-18T13:18:02.983Z,10.40
2019-03-18T13:20:32.225Z,10.70
2019-03-18T13:23:02.947Z,10.90
2019-03-18T13:25:32.107Z,11.10
2019-03-18T13:28:01.325Z,11.40
2019-03-18T13:30:30.600Z,11.30
2019-03-18T13:32:59.826Z,11.40
2019-03-18T13:35:29.047Z,11.50
2019-03-18T13:37:58.295Z,11.50
2019-03-18T13:40:27.595Z,11.10
2019-03-18T13:42:56.905Z,10.90
2019-03-18T13:45:26.111Z,10.90
2019-03-18T13:47:55.339Z,10.70
2019-03-18T13:50:24.570Z,10.80
2019-03-18T13:52:53.840Z,10.70
2019-03-18T13:55:23.005Z,10.70
2019-03-18T13:57:52.242Z,10.80
2019-03-18T14:00:21.588Z,10.80
2019-03-18T14:02:50.935Z,10.60
2019-03-18T14:05:20.641Z,10.70
2019-03-18T14:07:59.705Z,10.80
2019-03-18T14:10:20.888Z,11.10
2019-03-18T14:12:50.122Z,11.20
2019-03-18T14:15:19.322Z,11.40
2019-03-18T14:17:48.598Z,11.50
2019-03-18T14:20:17.784Z,11.50
2019-03-18T14:22:47.109Z,11.40
2019-03-18T14:25:16.342Z,11.30
2019-03-18T14:27:45.575Z,11.50
2019-03-18T14:30:15.787Z,11.30
2019-03-18T14:32:45.019Z,11.30
2019-03-18T14:35:14.380Z,11.50
2019-03-18T14:37:43.758Z,11.60
2019-03-18T14:40:13.678Z,11.80
2019-03-18T14:42:42.857Z,12.40
2019-03-18T14:45:14.628Z,14.00
2019-03-18T14:47:43.768Z,14.40
2019-03-18T14:50:13.340Z,14.50
2019-03-18T14:52:42.680Z,14.70
2019-03-18T14:55:12.403Z,14.40
2019-03-18T14:57:41.628Z,13.50
2019-03-18T15:00:16.490Z,12.00
2019-03-18T15:02:45.673Z,12.30
2019-03-18T15:05:15.212Z,13.20
2019-03-18T15:07:44.804Z,13.60
2019-03-18T15:10:14.147Z,14.30
2019-03-18T15:12:43.424Z,14.50
2019-03-18T15:15:14.295Z,13.50
2019-03-18T15:17:43.530Z,13.40
2019-03-18T15:20:12.992Z,14.00
2019-03-18T15:22:42.234Z,13.90
2019-03-18T15:25:14.009Z,13.80
2019-03-18T15:27:43.167Z,12.60
2019-03-18T15:30:14.404Z,11.60
2019-03-18T15:32:43.574Z,10.90
2019-03-18T15:35:12.987Z,10.60
2019-03-18T15:37:42.182Z,10.40
2019-03-18T15:40:12.588Z,10.30
2019-03-18T15:42:41.816Z,10.20
2019-03-18T15:45:11.879Z,10.20
2019-03-18T15:47:41.029Z,10.20
2019-03-18T15:50:13.135Z,10.20
2019-03-18T15:52:42.593Z,10.20
2019-03-18T15:55:11.887Z,10.30
2019-03-18T15:57:41.034Z,10.40
2019-03-18T16:00:12.312Z,10.30
2019-03-18T16:02:41.682Z,10.20
2019-03-18T16:05:11.058Z,10.10
2019-03-18T16:07:40.354Z,10.00
2019-03-18T16:10:10.154Z,9.90
2019-03-18T16:12:39.390Z,9.80
2019-03-18T16:15:09.378Z,9.90
2019-03-18T16:17:41.437Z,9.90
2019-03-18T16:20:11.010Z,10.50
2019-03-18T16:22:40.201Z,11.10
2019-03-18T16:25:09.382Z,11.70
2019-03-18T16:27:38.611Z,12.60
2019-03-18T16:30:09.186Z,13.10
2019-03-18T16:32:38.491Z,13.50
2019-03-18T16:35:08.559Z,13.70
2019-03-18T16:37:37.849Z,13.60
2019-03-18T16:40:08.382Z,12.90
2019-03-18T16:42:37.532Z,12.10
2019-03-18T16:45:07.575Z,12.50
2019-03-18T16:47:36.775Z,12.50
2019-03-18T16:50:07.567Z,12.30
2019-03-18T16:52:36.762Z,12.80
2019-03-18T16:55:05.941Z,13.30
2019-03-18T16:57:35.205Z,13.40
2019-03-18T17:00:05.268Z,13.50
2019-03-18T17:02:34.499Z,13.00
2019-03-18T17:05:04.027Z,12.50
2019-03-18T17:07:33.207Z,11.90
2019-03-18T17:10:02.443Z,11.60
2019-03-18T17:12:31.607Z,11.10
2019-03-18T17:15:00.795Z,10.90
2019-03-18T17:17:30.045Z,10.80
2019-03-18T17:19:59.278Z,10.70
2019-03-18T17:22:28.486Z,10.40
2019-03-18T17:24:57.627Z,10.00
2019-03-18T17:27:26.788Z,9.70
2019-03-18T17:29:56.046Z,9.50
2019-03-18T17:32:25.175Z,9.20
2019-03-18T17:34:54.434Z,9.00
2019-03-18T17:37:23.683Z,9.00
2019-03-18T17:39:52.840Z,8.80
2019-03-18T17:42:22.057Z,8.80
2019-03-18T17:44:51.299Z,8.70
2019-03-18T17:47:20.534Z,8.60
2019-03-18T17:49:49.752Z,8.60
2019-03-18T17:52:19.089Z,8.50
2019-03-18T17:54:48.316Z,8.40
2019-03-18T17:57:17.612Z,8.30
2019-03-18T17:59:46.801Z,8.20
2019-03-18T18:02:16.100Z,8.20
2019-03-18T18:04:45.267Z,8.10
2019-03-18T18:07:14.608Z,8.00
2019-03-18T18:09:43.762Z,8.00
2019-03-18T18:12:13.073Z,7.90
2019-03-18T18:14:42.342Z,7.80
2019-03-18T18:17:11.544Z,7.80
2019-03-18T18:19:40.763Z,7.80
2019-03-18T18:22:10.068Z,7.70
2019-03-18T18:24:39.311Z,7.60
2019-03-18T18:27:08.517Z,7.60
2019-03-18T18:29:37.777Z,7.60
2019-03-18T18:32:07.088Z,7.50
2019-03-18T18:34:36.394Z,7.40
2019-03-18T18:37:05.581Z,7.30
2019-03-18T18:39:34.736Z,7.20
2019-03-18T18:42:03.887Z,7.20
2019-03-18T18:44:33.136Z,7.20
2019-03-18T18:47:02.287Z,7.20
2019-03-18T18:49:31.499Z,7.10
2019-03-18T18:52:00.680Z,6.90
2019-03-18T18:54:29.997Z,6.80
2019-03-18T18:56:59.310Z,6.70
2019-03-18T18:59:28.606Z,6.50
2019-03-18T19:01:57.845Z,6.40
2019-03-18T19:04:27.052Z,6.30
2019-03-18T19:06:56.312Z,6.20
2019-03-18T19:09:25.534Z,6.10
2019-03-18T19:11:54.682Z,6.00
2019-03-18T19:14:24.019Z,6.00
2019-03-18T19:16:53.179Z,5.90
2019-03-18T19:19:22.342Z,5.80
2019-03-18T19:21:51.668Z,5.80
2019-03-18T19:24:20.884Z,5.70
2019-03-18T19:26:50.119Z,5.60
2019-03-18T19:29:19.404Z,5.60
2019-03-18T19:31:48.624Z,5.60
2019-03-18T19:34:17.761Z,5.50
2019-03-18T19:36:46.951Z,5.40
2019-03-18T19:39:16.181Z,5.30
2019-03-18T19:41:45.506Z,5.30
2019-03-18T19:44:14.828Z,5.20
2019-03-18T19:46:44.071Z,5.20
2019-03-18T19:49:13.385Z,5.10
2019-03-18T19:51:42.557Z,5.00
2019-03-18T19:54:12.918Z,4.80
2019-03-18T19:56:42.433Z,4.70
2019-03-18T19:59:11.712Z,4.80
2019-03-18T20:01:41.006Z,4.70
2019-03-18T20:04:10.310Z,4.70
2019-03-18T20:06:39.696Z,4.70
2019-03-18T20:09:09.235Z,4.60
2019-03-18T20:11:38.510Z,4.60
2019-03-18T20:14:07.871Z,4.50
2019-03-18T20:16:37.116Z,4.40
2019-03-18T20:19:06.579Z,4.40
2019-03-18T20:21:35.966Z,4.40
2019-03-18T20:24:05.261Z,4.30
2019-03-18T20:26:34.512Z,4.30
2019-03-18T20:29:11.781Z,4.30
2019-03-18T20:31:41.017Z,4.20
2019-03-18T20:34:10.259Z,4.20
2019-03-18T20:36:39.589Z,4.00
2019-03-18T20:39:08.929Z,4.00
2019-03-18T20:41:38.266Z,3.90
2019-03-18T20:44:07.522Z,4.00
2019-03-18T20:46:36.826Z,3.90
2019-03-18T20:49:06.114Z,3.80
2019-03-18T20:51:35.291Z,3.70
2019-03-18T20:54:12.142Z,3.70
2019-03-18T20:56:35.626Z,3.60
2019-03-18T20:59:04.908Z,3.60
2019-03-18T21:01:36.170Z,3.60
2019-03-18T21:04:06.356Z,3.60
2019-03-18T21:06:35.691Z,3.50
2019-03-18T21:09:06.803Z,3.40
2019-03-18T21:11:36.090Z,3.40
2019-03-18T21:14:05.656Z,3.40
2019-03-18T21:16:40.275Z,3.30
2019-03-18T21:19:09.560Z,3.30
2019-03-18T21:21:38.860Z,3.20
2019-03-18T21:24:08.143Z,3.20
2019-03-18T21:26:37.399Z,3.10
2019-03-18T21:29:06.648Z,3.10
2019-03-18T21:31:36.164Z,3.10
2019-03-18T21:34:05.308Z,3.10
2019-03-18T21:36:38.046Z,3.00
2019-03-18T21:39:08.793Z,2.90
2019-03-18T21:41:37.947Z,2.80
2019-03-18T21:44:07.112Z,2.80
2019-03-18T21:46:36.306Z,2.70
2019-03-18T21:49:05.726Z,2.70
2019-03-18T21:51:34.958Z,2.70
2019-03-18T21:54:04.564Z,2.70
2019-03-18T21:56:33.913Z,2.70
2019-03-18T21:59:03.091Z,2.70
2019-03-18T22:01:32.437Z,2.60
2019-03-18T22:04:01.611Z,2.50
2019-03-18T22:06:30.839Z,2.50
2019-03-18T22:09:00.127Z,2.50
2019-03-18T22:11:29.412Z,2.50
2019-03-18T22:13:58.572Z,2.50
2019-03-18T22:16:27.932Z,2.40
2019-03-18T22:18:57.157Z,2.40
2019-03-18T22:21:26.404Z,2.40
2019-03-18T22:23:55.671Z,2.30
2019-03-18T22:26:25.007Z,2.30
2019-03-18T22:28:54.162Z,2.20
2019-03-18T22:31:23.366Z,2.20
2019-03-18T22:33:52.528Z,2.10
2019-03-18T22:36:21.755Z,2.10
2019-03-18T22:38:51.080Z,2.10
2019-03-18T22:41:20.313Z,2.10
2019-03-18T22:43:49.484Z,2.20
2019-03-18T22:46:18.769Z,2.20
2019-03-18T22:48:48.073Z,2.10
2019-03-18T22:51:17.305Z,2.10
2019-03-18T22:53:46.763Z,2.10
2019-03-18T22:56:15.984Z,2.00
2019-03-18T22:58:45.267Z,1.90
2019-03-18T23:01:20.310Z,1.80
2019-03-18T23:03:49.643Z,1.80
2019-03-18T23:06:18.895Z,1.80
2019-03-18T23:08:48.986Z,1.70
2019-03-18T23:11:18.533Z,1.70
2019-03-18T23:13:47.704Z,1.70
2019-03-18T23:16:16.943Z,1.70
2019-03-18T23:18:46.103Z,1.60
2019-03-18T23:21:15.254Z,1.60
2019-03-18T23:23:44.435Z,1.50
2019-03-18T23:26:13.595Z,1.50
2019-03-18T23:28:42.932Z,1.50
2019-03-18T23:31:12.209Z,1.50
2019-03-18T23:33:41.429Z,1.50
2019-03-18T23:36:10.809Z,1.50
2019-03-18T23:38:40.008Z,1.60
2019-03-18T23:41:09.237Z,1.50
2019-03-18T23:43:38.548Z,1.40
2019-03-18T23:46:07.812Z,1.40
2019-03-18T23:48:37.036Z,1.30
2019-03-18T23:51:06.198Z,1.30
2019-03-18T23:53:35.747Z,1.30
2019-03-18T23:56:05.324Z,1.30
2019-03-18T23:58:34.556Z,1.20
